LS Concorde — ZDHJ7 — position and weather

sailwx.info

Track history (hours):
 
Tides and Currents Weather Stations Pressure Air Temp Water Temp Dewpoint Dewpoint Depression Visibility Wind Speed Wind Dir Waves Ship Positions

LS Concorde

Last reported at 2015-Mar-01 18:33 UTC. Time now 2015-Mar-01 19:23 UTC.
Position N 53°36' E 000°26'.

Length 99 m; draft 5.4 m.

Type: Tanker. MMSI: 236329000.

Date/timePositionNaut miles runAvg speedWind from/ knotsBaromVisibWave heightAir tempDewpointWater temp
2015-Mar-01 18:33N 53°36' E 000°26'0 0.0
2015-Mar-01 17:32N 53°36' E 000°26'0 0.0
2015-Mar-01 16:34N 53°36' E 000°26'0 0.1
2015-Mar-01 15:33N 53°36' E 000°26'7 6.7
2015-Mar-01 14:32N 53°30' E 000°32'3110.2
2015-Mar-01 11:31N 53°05' E 001°02'1111.2
2015-Mar-01 10:33N 52°60' E 001°17'1211.8
2015-Mar-01 09:34N 52°54' E 001°35'1211.5
2015-Mar-01 08:34N 52°47' E 001°50'1311.1
2015-Mar-01 07:26N 52°37' E 002°03'910.6
2015-Mar-01 06:34N 52°30' E 002°11'6010.0
2015-Mar-01 00:33N 51°44' E 003°15'1312.8
2015-Feb-28 23:33N 51°33' E 003°25'8 8.4
2015-Feb-28 22:33N 51°27' E 003°34'10 9.6
2015-Feb-28 21:33N 51°34' E 003°24'11 9.9
2015-Feb-28 20:29N 51°44' E 003°18'3 1.1
2015-Feb-28 17:30N 51°47' E 003°19'1111.4
2015-Feb-28 16:33N 51°46' E 003°02'7 2.3
2015-Feb-28 13:29N 51°45' E 003°13'1010.7
2015-Feb-28 12:33N 51°37' E 003°22'1111.0
2015-Feb-28 11:34N 51°27' E 003°31'8 8.2
2015-Feb-28 10:33N 51°23' E 003°43'5 5.4
2015-Feb-28 09:34N 51°20' E 003°49'3 3.1
2015-Feb-28 08:33N 51°17' E 003°50'0 0.3
2015-Feb-28 07:31N 51°16' E 003°50'0 0.0
2015-Feb-28 06:31N 51°16' E 003°50'0 0.0
2015-Feb-28 05:31N 51°16' E 003°50'0 0.0
2015-Feb-28 04:28N 51°16' E 003°50'0 0.0
2015-Feb-28 03:31N 51°16' E 003°50'0 0.0
2015-Feb-28 02:28N 51°16' E 003°50'0 0.0
2015-Feb-28 01:31N 51°16' E 003°50'0 0.0
2015-Feb-28 00:31N 51°16' E 003°50'0 0.0
2015-Feb-27 23:22N 51°16' E 003°50'0 0.0
2015-Feb-27 22:28N 51°16' E 003°50'0 0.0
2015-Feb-27 21:31N 51°16' E 003°50'0 0.0
2015-Feb-27 20:31N 51°16' E 003°50'0 0.0
2015-Feb-27 19:25N 51°16' E 003°50'0 0.0
2015-Feb-27 18:28N 51°16' E 003°50'0 0.0
2015-Feb-27 17:25N 51°16' E 003°50'0 0.0
2015-Feb-27 16:31N 51°16' E 003°50'0 0.0
2015-Feb-27 15:31N 51°16' E 003°50'0 0.0
2015-Feb-27 14:31N 51°16' E 003°50'0 0.0
2015-Feb-27 13:31N 51°16' E 003°50'0 0.0
2015-Feb-27 12:28N 51°16' E 003°50'0 0.0
2015-Feb-27 11:28N 51°16' E 003°50'0 0.0
2015-Feb-27 10:28N 51°16' E 003°50'0 0.0
2015-Feb-27 09:25N 51°16' E 003°50'0 0.0
2015-Feb-27 08:28N 51°16' E 003°50'0 0.0
2015-Feb-27 07:28N 51°16' E 003°50'0 0.0
2015-Feb-27 06:28N 51°16' E 003°50'0 0.0
2015-Feb-27 05:28N 51°16' E 003°50'0 0.0
2015-Feb-27 04:31N 51°16' E 003°50'0 0.0
2015-Feb-27 03:31N 51°16' E 003°50'0 0.0
2015-Feb-27 02:31N 51°16' E 003°50'0 0.0
2015-Feb-27 01:31N 51°16' E 003°50'0 0.0
2015-Feb-27 00:31N 51°16' E 003°50'0 0.0
2015-Feb-26 23:22N 51°16' E 003°50'0 0.0
2015-Feb-26 22:31N 51°16' E 003°50'0 0.0
2015-Feb-26 21:28N 51°16' E 003°50'0 0.0
2015-Feb-26 20:31N 51°16' E 003°50'0 0.0
2015-Feb-26 19:28N 51°16' E 003°50'0 0.0
2015-Feb-26 18:28N 51°16' E 003°50'0 0.0
2015-Feb-26 17:31N 51°16' E 003°50'0 0.0
2015-Feb-26 16:31N 51°16' E 003°50'0 0.0
2015-Feb-26 15:28N 51°16' E 003°50'0 0.0
2015-Feb-26 14:31N 51°16' E 003°50'0 0.0
2015-Feb-26 13:25N 51°16' E 003°50'0 0.0
2015-Feb-26 12:28N 51°16' E 003°50'0 0.0
2015-Feb-26 11:31N 51°16' E 003°50'0 0.0
2015-Feb-26 10:31N 51°16' E 003°50'0 0.0
2015-Feb-26 09:31N 51°16' E 003°50'0 0.0
2015-Feb-26 08:31N 51°16' E 003°50'0 0.0
2015-Feb-26 07:31N 51°16' E 003°50'0 0.0
2015-Feb-26 06:31N 51°16' E 003°50'0 0.0
2015-Feb-26 05:31N 51°16' E 003°50'0 0.0
2015-Feb-26 04:28N 51°16' E 003°50'0 0.0
2015-Feb-26 03:28N 51°16' E 003°50'0 0.0
2015-Feb-26 02:28N 51°16' E 003°50'0 0.0
2015-Feb-26 01:31N 51°16' E 003°50'0 0.0
2015-Feb-26 00:22N 51°16' E 003°50'0 0.0
2015-Feb-25 23:28N 51°16' E 003°50'0 0.0
2015-Feb-25 22:31N 51°16' E 003°50'0 0.0
2015-Feb-25 21:28N 51°16' E 003°50'0 0.0
2015-Feb-25 20:31N 51°16' E 003°50'0 0.0
2015-Feb-25 19:31N 51°16' E 003°50'0 0.0
2015-Feb-25 18:31N 51°16' E 003°50'0 0.0
2015-Feb-25 17:31N 51°16' E 003°50'0 0.0
2015-Feb-25 16:31N 51°16' E 003°50'0 0.0
2015-Feb-25 15:31N 51°16' E 003°50'0 0.0
2015-Feb-25 14:31N 51°16' E 003°50'0 0.0
2015-Feb-25 13:31N 51°16' E 003°50'0 0.0
2015-Feb-25 12:31N 51°16' E 003°50'0 0.0
2015-Feb-25 11:28N 51°16' E 003°50'0 0.0
2015-Feb-25 10:28N 51°16' E 003°50'0 0.0
2015-Feb-25 09:31N 51°16' E 003°50'0 0.0
2015-Feb-25 08:31N 51°16' E 003°50'0 0.0
2015-Feb-25 07:28N 51°16' E 003°50'0 0.0
2015-Feb-25 06:28N 51°16' E 003°50'0 0.0
2015-Feb-25 05:25N 51°16' E 003°50'0 0.0
2015-Feb-25 04:31N 51°16' E 003°50'0 0.0
2015-Feb-25 03:28N 51°16' E 003°50'0 0.0
2015-Feb-25 02:31N 51°16' E 003°50'0 0.0
2015-Feb-25 01:31N 51°16' E 003°50'0 0.0
2015-Feb-25 00:31N 51°16' E 003°50'0 0.0
2015-Feb-24 23:28N 51°16' E 003°50'0 0.0
2015-Feb-24 22:31N 51°16' E 003°50'0 0.0
2015-Feb-24 21:31N 51°16' E 003°50'0 0.0
2015-Feb-24 20:31N 51°16' E 003°50'0 0.0
2015-Feb-24 19:31N 51°16' E 003°50'0 0.0
2015-Feb-24 18:31N 51°16' E 003°50'0 0.0
2015-Feb-24 17:31N 51°16' E 003°50'0 0.0
2015-Feb-24 16:31N 51°16' E 003°50'0 0.0
2015-Feb-24 15:31N 51°16' E 003°50'0 0.0
2015-Feb-24 14:31N 51°16' E 003°50'0 0.0
2015-Feb-24 13:31N 51°16' E 003°50'0 0.0
2015-Feb-24 12:25N 51°16' E 003°50'0 0.0
2015-Feb-24 11:28N 51°16' E 003°50'0 0.0
2015-Feb-24 10:31N 51°16' E 003°50'0 0.0
2015-Feb-24 09:31N 51°16' E 003°50'0 0.0
2015-Feb-24 08:31N 51°16' E 003°50'0 0.0
2015-Feb-24 07:31N 51°16' E 003°50'0 0.0
2015-Feb-24 06:31N 51°16' E 003°50'0 0.0
2015-Feb-24 05:31N 51°16' E 003°50'0 0.0
2015-Feb-24 04:31N 51°16' E 003°50'0 0.0
2015-Feb-24 03:31N 51°16' E 003°50'0 0.0
2015-Feb-24 02:31N 51°16' E 003°50'0 0.0
2015-Feb-24 01:31N 51°16' E 003°50'0 0.0
2015-Feb-24 00:28N 51°16' E 003°50'0 0.0
2015-Feb-23 23:28N 51°16' E 003°50'0 0.0
2015-Feb-23 22:31N 51°16' E 003°50'0 0.0
2015-Feb-23 21:28N 51°16' E 003°50'0 0.0
2015-Feb-23 20:31N 51°16' E 003°50'0 0.0
2015-Feb-23 19:28N 51°16' E 003°50'0 0.0
2015-Feb-23 18:31N 51°16' E 003°50'0 0.0
2015-Feb-23 17:31N 51°16' E 003°50'0 0.0
2015-Feb-23 16:31N 51°16' E 003°50'0 0.0
2015-Feb-23 15:31N 51°16' E 003°50'0 0.0
2015-Feb-23 14:31N 51°16' E 003°50'0 0.0
2015-Feb-23 13:31N 51°16' E 003°50'0 0.0
2015-Feb-23 12:28N 51°16' E 003°50'0 0.0
2015-Feb-23 11:31N 51°16' E 003°50'0 0.0
2015-Feb-23 10:28N 51°16' E 003°50'0 0.0
2015-Feb-23 09:31N 51°16' E 003°50'0 0.0
2015-Feb-23 08:31N 51°16' E 003°50'0 0.0
2015-Feb-23 07:28N 51°16' E 003°50'0 0.0
2015-Feb-23 06:31N 51°16' E 003°50'0 0.0
2015-Feb-23 05:28N 51°16' E 003°50'0 0.0
2015-Feb-23 04:28N 51°16' E 003°50'0 0.0
2015-Feb-23 03:28N 51°16' E 003°50'0 0.0
2015-Feb-23 02:31N 51°16' E 003°50'0 0.0
2015-Feb-23 01:28N 51°16' E 003°50'0 0.0
2015-Feb-23 00:28N 51°16' E 003°50'0 0.0
2015-Feb-22 23:31N 51°16' E 003°50'0 0.0
2015-Feb-22 22:31N 51°16' E 003°50'0 0.0
2015-Feb-22 21:31N 51°16' E 003°50'0 0.0
2015-Feb-22 20:28N 51°16' E 003°50'0 0.0
2015-Feb-22 19:31N 51°16' E 003°50'0 0.0
2015-Feb-22 18:28N 51°16' E 003°50'0 0.0
2015-Feb-22 17:31N 51°16' E 003°50'0 0.0
2015-Feb-22 16:28N 51°16' E 003°50'0 0.0
2015-Feb-22 15:31N 51°16' E 003°50'0 0.0
2015-Feb-22 14:25N 51°16' E 003°50'0 0.0
2015-Feb-22 13:31N 51°16' E 003°50'0 0.0
2015-Feb-22 12:31N 51°16' E 003°50'0 0.0
2015-Feb-22 11:31N 51°16' E 003°50'0 0.0
2015-Feb-22 10:31N 51°16' E 003°50'0 0.0
2015-Feb-22 09:31N 51°16' E 003°50'0 0.0
2015-Feb-22 08:31N 51°16' E 003°50'0 0.0
2015-Feb-22 07:28N 51°16' E 003°50'0 0.0
2015-Feb-22 06:25N 51°16' E 003°50'0 0.0
2015-Feb-22 05:28N 51°16' E 003°50'0 0.0
2015-Feb-22 04:28N 51°16' E 003°50'0 0.0
2015-Feb-22 03:31N 51°16' E 003°50'0 0.0
2015-Feb-22 02:28N 51°16' E 003°50'0 0.0
2015-Feb-22 01:28N 51°16' E 003°50'0 0.0
2015-Feb-22 00:28N 51°16' E 003°50'0 0.0
2015-Feb-21 23:25N 51°16' E 003°50'0 0.0
2015-Feb-21 22:28N 51°16' E 003°50'0 0.0
2015-Feb-21 21:31N 51°16' E 003°50'0 0.0
2015-Feb-21 20:31N 51°16' E 003°50'0 0.0
2015-Feb-21 19:28N 51°16' E 003°50'0 0.0
2015-Feb-21 18:28N 51°16' E 003°50'0 0.0
2015-Feb-21 17:28N 51°16' E 003°50'0 0.0
2015-Feb-21 16:31N 51°16' E 003°50'0 0.0
2015-Feb-21 15:31N 51°16' E 003°50'0 0.0
2015-Feb-21 14:31N 51°16' E 003°50'0 0.0
2015-Feb-21 13:28N 51°16' E 003°50'0 0.0
2015-Feb-21 12:28N 51°16' E 003°50'0 0.0
2015-Feb-21 11:31N 51°16' E 003°50'0 0.0
2015-Feb-21 10:28N 51°16' E 003°50'0 0.0
2015-Feb-21 09:28N 51°16' E 003°50'0 0.0
2015-Feb-21 08:33N 51°16' E 003°50'0 0.0
2015-Feb-21 07:33N 51°16' E 003°50'0 0.0
2015-Feb-21 06:33N 51°16' E 003°50'0 0.0
2015-Feb-21 05:33N 51°16' E 003°50'0 0.0
2015-Feb-21 04:33N 51°16' E 003°50'0 0.0
2015-Feb-21 03:33N 51°16' E 003°50'0 0.0
2015-Feb-21 02:33N 51°16' E 003°50'0 0.0
2015-Feb-21 01:33N 51°16' E 003°50'0 0.0
2015-Feb-21 00:33N 51°16' E 003°50'0 0.0
2015-Feb-20 23:27N 51°16' E 003°50'0 0.0
2015-Feb-20 22:33N 51°16' E 003°50'0 0.0
2015-Feb-20 21:27N 51°16' E 003°50'0 0.0
2015-Feb-20 20:33N 51°16' E 003°50'0 0.0
2015-Feb-20 19:33N 51°16' E 003°50'0 0.0
2015-Feb-20 18:27N 51°16' E 003°50'0 0.0
2015-Feb-20 17:33N 51°16' E 003°50'0 0.0
2015-Feb-20 16:33N 51°16' E 003°50'0 0.0
2015-Feb-20 15:33N 51°16' E 003°50'0 0.0
2015-Feb-20 14:33N 51°16' E 003°50'0 0.0
2015-Feb-20 13:33N 51°16' E 003°50'0 0.0
2015-Feb-20 12:33N 51°16' E 003°50'0 0.0
2015-Feb-20 11:33N 51°16' E 003°50'0 0.0
2015-Feb-20 10:27N 51°16' E 003°50'0 0.0
2015-Feb-20 09:33N 51°16' E 003°50'0 0.0
2015-Feb-20 08:33N 51°16' E 003°50'0 0.0
2015-Feb-20 07:33N 51°16' E 003°50'0 0.0
2015-Feb-20 06:30N 51°16' E 003°50'0 0.0
2015-Feb-20 05:33N 51°16' E 003°50'0 0.0
2015-Feb-20 04:33N 51°16' E 003°50'0 0.0
2015-Feb-20 03:30N 51°16' E 003°50'0 0.0
2015-Feb-20 02:33N 51°16' E 003°50'0 0.0
2015-Feb-20 01:33N 51°16' E 003°50'0 0.0
2015-Feb-20 00:33N 51°16' E 003°50'0 0.0
2015-Feb-19 23:33N 51°16' E 003°50'0 0.0
2015-Feb-19 22:21N 51°16' E 003°50'0 0.0
2015-Feb-19 21:33N 51°16' E 003°50'0 0.0
2015-Feb-19 20:27N 51°16' E 003°50'0 0.0
2015-Feb-19 19:33N 51°16' E 003°50'  
Track history (hours):
 
Tides and Currents Weather Stations Pressure Air Temp Water Temp Dewpoint Dewpoint Depression Visibility Wind Speed Wind Dir Waves Ship Positions

LS Concorde

Last reported at 2015-Mar-01 18:33 UTC. Time now 2015-Mar-01 19:23 UTC.
Position N 53°36' E 000°26'.

Length 99 m; draft 5.4 m.

Type: Tanker. MMSI: 236329000.

Date/timePositionNaut miles runAvg speedWind from/ knotsBaromVisibWave heightAir tempDewpointWater temp
2015-Mar-01 18:33N 53°36' E 000°26'0 0.0
2015-Mar-01 17:32N 53°36' E 000°26'0 0.0
2015-Mar-01 16:34N 53°36' E 000°26'0 0.1
2015-Mar-01 15:33N 53°36' E 000°26'7 6.7
2015-Mar-01 14:32N 53°30' E 000°32'3110.2
2015-Mar-01 11:31N 53°05' E 001°02'1111.2
2015-Mar-01 10:33N 52°60' E 001°17'1211.8
2015-Mar-01 09:34N 52°54' E 001°35'1211.5
2015-Mar-01 08:34N 52°47' E 001°50'1311.1
2015-Mar-01 07:26N 52°37' E 002°03'910.6
2015-Mar-01 06:34N 52°30' E 002°11'6010.0
2015-Mar-01 00:33N 51°44' E 003°15'1312.8
2015-Feb-28 23:33N 51°33' E 003°25'8 8.4
2015-Feb-28 22:33N 51°27' E 003°34'10 9.6
2015-Feb-28 21:33N 51°34' E 003°24'11 9.9
2015-Feb-28 20:29N 51°44' E 003°18'3 1.1
2015-Feb-28 17:30N 51°47' E 003°19'1111.4
2015-Feb-28 16:33N 51°46' E 003°02'7 2.3
2015-Feb-28 13:29N 51°45' E 003°13'1010.7
2015-Feb-28 12:33N 51°37' E 003°22'1111.0
2015-Feb-28 11:34N 51°27' E 003°31'8 8.2
2015-Feb-28 10:33N 51°23' E 003°43'5 5.4
2015-Feb-28 09:34N 51°20' E 003°49'3 3.1
2015-Feb-28 08:33N 51°17' E 003°50'0 0.3
2015-Feb-28 07:31N 51°16' E 003°50'0 0.0
2015-Feb-28 06:31N 51°16' E 003°50'0 0.0
2015-Feb-28 05:31N 51°16' E 003°50'0 0.0
2015-Feb-28 04:28N 51°16' E 003°50'0 0.0
2015-Feb-28 03:31N 51°16' E 003°50'0 0.0
2015-Feb-28 02:28N 51°16' E 003°50'0 0.0
2015-Feb-28 01:31N 51°16' E 003°50'0 0.0
2015-Feb-28 00:31N 51°16' E 003°50'0 0.0
2015-Feb-27 23:22N 51°16' E 003°50'0 0.0
2015-Feb-27 22:28N 51°16' E 003°50'0 0.0
2015-Feb-27 21:31N 51°16' E 003°50'0 0.0
2015-Feb-27 20:31N 51°16' E 003°50'0 0.0
2015-Feb-27 19:25N 51°16' E 003°50'0 0.0
2015-Feb-27 18:28N 51°16' E 003°50'0 0.0
2015-Feb-27 17:25N 51°16' E 003°50'0 0.0
2015-Feb-27 16:31N 51°16' E 003°50'0 0.0
2015-Feb-27 15:31N 51°16' E 003°50'0 0.0
2015-Feb-27 14:31N 51°16' E 003°50'0 0.0
2015-Feb-27 13:31N 51°16' E 003°50'0 0.0
2015-Feb-27 12:28N 51°16' E 003°50'0 0.0
2015-Feb-27 11:28N 51°16' E 003°50'0 0.0
2015-Feb-27 10:28N 51°16' E 003°50'0 0.0
2015-Feb-27 09:25N 51°16' E 003°50'0 0.0
2015-Feb-27 08:28N 51°16' E 003°50'0 0.0
2015-Feb-27 07:28N 51°16' E 003°50'0 0.0
2015-Feb-27 06:28N 51°16' E 003°50'0 0.0
2015-Feb-27 05:28N 51°16' E 003°50'0 0.0
2015-Feb-27 04:31N 51°16' E 003°50'0 0.0
2015-Feb-27 03:31N 51°16' E 003°50'0 0.0
2015-Feb-27 02:31N 51°16' E 003°50'0 0.0
2015-Feb-27 01:31N 51°16' E 003°50'0 0.0
2015-Feb-27 00:31N 51°16' E 003°50'0 0.0
2015-Feb-26 23:22N 51°16' E 003°50'0 0.0
2015-Feb-26 22:31N 51°16' E 003°50'0 0.0
2015-Feb-26 21:28N 51°16' E 003°50'0 0.0
2015-Feb-26 20:31N 51°16' E 003°50'0 0.0
2015-Feb-26 19:28N 51°16' E 003°50'0 0.0
2015-Feb-26 18:28N 51°16' E 003°50'0 0.0
2015-Feb-26 17:31N 51°16' E 003°50'0 0.0
2015-Feb-26 16:31N 51°16' E 003°50'0 0.0
2015-Feb-26 15:28N 51°16' E 003°50'0 0.0
2015-Feb-26 14:31N 51°16' E 003°50'0 0.0
2015-Feb-26 13:25N 51°16' E 003°50'0 0.0
2015-Feb-26 12:28N 51°16' E 003°50'0 0.0
2015-Feb-26 11:31N 51°16' E 003°50'0 0.0
2015-Feb-26 10:31N 51°16' E 003°50'0 0.0
2015-Feb-26 09:31N 51°16' E 003°50'0 0.0
2015-Feb-26 08:31N 51°16' E 003°50'0 0.0
2015-Feb-26 07:31N 51°16' E 003°50'0 0.0
2015-Feb-26 06:31N 51°16' E 003°50'0 0.0
2015-Feb-26 05:31N 51°16' E 003°50'0 0.0
2015-Feb-26 04:28N 51°16' E 003°50'0 0.0
2015-Feb-26 03:28N 51°16' E 003°50'0 0.0
2015-Feb-26 02:28N 51°16' E 003°50'0 0.0
2015-Feb-26 01:31N 51°16' E 003°50'0 0.0
2015-Feb-26 00:22N 51°16' E 003°50'0 0.0
2015-Feb-25 23:28N 51°16' E 003°50'0 0.0
2015-Feb-25 22:31N 51°16' E 003°50'0 0.0
2015-Feb-25 21:28N 51°16' E 003°50'0 0.0
2015-Feb-25 20:31N 51°16' E 003°50'0 0.0
2015-Feb-25 19:31N 51°16' E 003°50'0 0.0
2015-Feb-25 18:31N 51°16' E 003°50'0 0.0
2015-Feb-25 17:31N 51°16' E 003°50'0 0.0
2015-Feb-25 16:31N 51°16' E 003°50'0 0.0
2015-Feb-25 15:31N 51°16' E 003°50'0 0.0
2015-Feb-25 14:31N 51°16' E 003°50'0 0.0
2015-Feb-25 13:31N 51°16' E 003°50'0 0.0
2015-Feb-25 12:31N 51°16' E 003°50'0 0.0
2015-Feb-25 11:28N 51°16' E 003°50'0 0.0
2015-Feb-25 10:28N 51°16' E 003°50'0 0.0
2015-Feb-25 09:31N 51°16' E 003°50'0 0.0
2015-Feb-25 08:31N 51°16' E 003°50'0 0.0
2015-Feb-25 07:28N 51°16' E 003°50'0 0.0
2015-Feb-25 06:28N 51°16' E 003°50'0 0.0
2015-Feb-25 05:25N 51°16' E 003°50'0 0.0
2015-Feb-25 04:31N 51°16' E 003°50'0 0.0
2015-Feb-25 03:28N 51°16' E 003°50'0 0.0
2015-Feb-25 02:31N 51°16' E 003°50'0 0.0
2015-Feb-25 01:31N 51°16' E 003°50'0 0.0
2015-Feb-25 00:31N 51°16' E 003°50'0 0.0
2015-Feb-24 23:28N 51°16' E 003°50'0 0.0
2015-Feb-24 22:31N 51°16' E 003°50'0 0.0
2015-Feb-24 21:31N 51°16' E 003°50'0 0.0
2015-Feb-24 20:31N 51°16' E 003°50'0 0.0
2015-Feb-24 19:31N 51°16' E 003°50'0 0.0
2015-Feb-24 18:31N 51°16' E 003°50'0 0.0
2015-Feb-24 17:31N 51°16' E 003°50'0 0.0
2015-Feb-24 16:31N 51°16' E 003°50'0 0.0
2015-Feb-24 15:31N 51°16' E 003°50'0 0.0
2015-Feb-24 14:31N 51°16' E 003°50'0 0.0
2015-Feb-24 13:31N 51°16' E 003°50'0 0.0
2015-Feb-24 12:25N 51°16' E 003°50'0 0.0
2015-Feb-24 11:28N 51°16' E 003°50'0 0.0
2015-Feb-24 10:31N 51°16' E 003°50'0 0.0
2015-Feb-24 09:31N 51°16' E 003°50'0 0.0
2015-Feb-24 08:31N 51°16' E 003°50'0 0.0
2015-Feb-24 07:31N 51°16' E 003°50'0 0.0
2015-Feb-24 06:31N 51°16' E 003°50'0 0.0
2015-Feb-24 05:31N 51°16' E 003°50'0 0.0
2015-Feb-24 04:31N 51°16' E 003°50'0 0.0
2015-Feb-24 03:31N 51°16' E 003°50'0 0.0
2015-Feb-24 02:31N 51°16' E 003°50'0 0.0
2015-Feb-24 01:31N 51°16' E 003°50'0 0.0
2015-Feb-24 00:28N 51°16' E 003°50'0 0.0
2015-Feb-23 23:28N 51°16' E 003°50'0 0.0
2015-Feb-23 22:31N 51°16' E 003°50'0 0.0
2015-Feb-23 21:28N 51°16' E 003°50'0 0.0
2015-Feb-23 20:31N 51°16' E 003°50'0 0.0
2015-Feb-23 19:28N 51°16' E 003°50'0 0.0
2015-Feb-23 18:31N 51°16' E 003°50'0 0.0
2015-Feb-23 17:31N 51°16' E 003°50'0 0.0
2015-Feb-23 16:31N 51°16' E 003°50'0 0.0
2015-Feb-23 15:31N 51°16' E 003°50'0 0.0
2015-Feb-23 14:31N 51°16' E 003°50'0 0.0
2015-Feb-23 13:31N 51°16' E 003°50'0 0.0
2015-Feb-23 12:28N 51°16' E 003°50'0 0.0
2015-Feb-23 11:31N 51°16' E 003°50'0 0.0
2015-Feb-23 10:28N 51°16' E 003°50'0 0.0
2015-Feb-23 09:31N 51°16' E 003°50'0 0.0
2015-Feb-23 08:31N 51°16' E 003°50'0 0.0
2015-Feb-23 07:28N 51°16' E 003°50'0 0.0
2015-Feb-23 06:31N 51°16' E 003°50'0 0.0
2015-Feb-23 05:28N 51°16' E 003°50'0 0.0
2015-Feb-23 04:28N 51°16' E 003°50'0 0.0
2015-Feb-23 03:28N 51°16' E 003°50'0 0.0
2015-Feb-23 02:31N 51°16' E 003°50'0 0.0
2015-Feb-23 01:28N 51°16' E 003°50'0 0.0
2015-Feb-23 00:28N 51°16' E 003°50'0 0.0
2015-Feb-22 23:31N 51°16' E 003°50'0 0.0
2015-Feb-22 22:31N 51°16' E 003°50'0 0.0
2015-Feb-22 21:31N 51°16' E 003°50'0 0.0
2015-Feb-22 20:28N 51°16' E 003°50'0 0.0
2015-Feb-22 19:31N 51°16' E 003°50'0 0.0
2015-Feb-22 18:28N 51°16' E 003°50'0 0.0
2015-Feb-22 17:31N 51°16' E 003°50'0 0.0
2015-Feb-22 16:28N 51°16' E 003°50'0 0.0
2015-Feb-22 15:31N 51°16' E 003°50'0 0.0
2015-Feb-22 14:25N 51°16' E 003°50'0 0.0
2015-Feb-22 13:31N 51°16' E 003°50'0 0.0
2015-Feb-22 12:31N 51°16' E 003°50'0 0.0
2015-Feb-22 11:31N 51°16' E 003°50'0 0.0
2015-Feb-22 10:31N 51°16' E 003°50'0 0.0
2015-Feb-22 09:31N 51°16' E 003°50'0 0.0
2015-Feb-22 08:31N 51°16' E 003°50'0 0.0
2015-Feb-22 07:28N 51°16' E 003°50'0 0.0
2015-Feb-22 06:25N 51°16' E 003°50'0 0.0
2015-Feb-22 05:28N 51°16' E 003°50'0 0.0
2015-Feb-22 04:28N 51°16' E 003°50'0 0.0
2015-Feb-22 03:31N 51°16' E 003°50'0 0.0
2015-Feb-22 02:28N 51°16' E 003°50'0 0.0
2015-Feb-22 01:28N 51°16' E 003°50'0 0.0
2015-Feb-22 00:28N 51°16' E 003°50'0 0.0
2015-Feb-21 23:25N 51°16' E 003°50'0 0.0
2015-Feb-21 22:28N 51°16' E 003°50'0 0.0
2015-Feb-21 21:31N 51°16' E 003°50'0 0.0
2015-Feb-21 20:31N 51°16' E 003°50'0 0.0
2015-Feb-21 19:28N 51°16' E 003°50'0 0.0
2015-Feb-21 18:28N 51°16' E 003°50'0 0.0
2015-Feb-21 17:28N 51°16' E 003°50'0 0.0
2015-Feb-21 16:31N 51°16' E 003°50'0 0.0
2015-Feb-21 15:31N 51°16' E 003°50'0 0.0
2015-Feb-21 14:31N 51°16' E 003°50'0 0.0
2015-Feb-21 13:28N 51°16' E 003°50'0 0.0
2015-Feb-21 12:28N 51°16' E 003°50'0 0.0
2015-Feb-21 11:31N 51°16' E 003°50'0 0.0
2015-Feb-21 10:28N 51°16' E 003°50'0 0.0
2015-Feb-21 09:28N 51°16' E 003°50'0 0.0
2015-Feb-21 08:33N 51°16' E 003°50'0 0.0
2015-Feb-21 07:33N 51°16' E 003°50'0 0.0
2015-Feb-21 06:33N 51°16' E 003°50'0 0.0
2015-Feb-21 05:33N 51°16' E 003°50'0 0.0
2015-Feb-21 04:33N 51°16' E 003°50'0 0.0
2015-Feb-21 03:33N 51°16' E 003°50'0 0.0
2015-Feb-21 02:33N 51°16' E 003°50'0 0.0
2015-Feb-21 01:33N 51°16' E 003°50'0 0.0
2015-Feb-21 00:33N 51°16' E 003°50'0 0.0
2015-Feb-20 23:27N 51°16' E 003°50'0 0.0
2015-Feb-20 22:33N 51°16' E 003°50'0 0.0
2015-Feb-20 21:27N 51°16' E 003°50'0 0.0
2015-Feb-20 20:33N 51°16' E 003°50'0 0.0
2015-Feb-20 19:33N 51°16' E 003°50'0 0.0
2015-Feb-20 18:27N 51°16' E 003°50'0 0.0
2015-Feb-20 17:33N 51°16' E 003°50'0 0.0
2015-Feb-20 16:33N 51°16' E 003°50'0 0.0
2015-Feb-20 15:33N 51°16' E 003°50'0 0.0
2015-Feb-20 14:33N 51°16' E 003°50'0 0.0
2015-Feb-20 13:33N 51°16' E 003°50'0 0.0
2015-Feb-20 12:33N 51°16' E 003°50'0 0.0
2015-Feb-20 11:33N 51°16' E 003°50'0 0.0
2015-Feb-20 10:27N 51°16' E 003°50'0 0.0
2015-Feb-20 09:33N 51°16' E 003°50'0 0.0
2015-Feb-20 08:33N 51°16' E 003°50'0 0.0
2015-Feb-20 07:33N 51°16' E 003°50'0 0.0
2015-Feb-20 06:30N 51°16' E 003°50'0 0.0
2015-Feb-20 05:33N 51°16' E 003°50'0 0.0
2015-Feb-20 04:33N 51°16' E 003°50'0 0.0
2015-Feb-20 03:30N 51°16' E 003°50'0 0.0
2015-Feb-20 02:33N 51°16' E 003°50'0 0.0
2015-Feb-20 01:33N 51°16' E 003°50'0 0.0
2015-Feb-20 00:33N 51°16' E 003°50'0 0.0
2015-Feb-19 23:33N 51°16' E 003°50'0 0.0
2015-Feb-19 22:21N 51°16' E 003°50'0 0.0
2015-Feb-19 21:33N 51°16' E 003°50'0 0.0
2015-Feb-19 20:27N 51°16' E 003°50'0 0.0
2015-Feb-19 19:33N 51°16' E 003°50'  

Dump ship's entire track history